sensor_id;sensor_type;location;lat;lon;timestamp;P1;durP1;ratioP1;P2;durP2;ratioP2
56991;SDS011;42885;49.754;18.636;2022-09-06T00:01:33;18.30;;;12.78;;
56991;SDS011;42885;49.754;18.636;2022-09-06T00:04:04;14.43;;;12.93;;
56991;SDS011;42885;49.754;18.636;2022-09-06T00:06:36;19.80;;;14.30;;
56991;SDS011;42885;49.754;18.636;2022-09-06T00:09:07;15.83;;;14.05;;
56991;SDS011;42885;49.754;18.636;2022-09-06T00:11:38;17.80;;;14.58;;
56991;SDS011;42885;49.754;18.636;2022-09-06T00:14:09;16.42;;;13.28;;
56991;SDS011;42885;49.754;18.636;2022-09-06T00:16:40;16.40;;;13.30;;
56991;SDS011;42885;49.754;18.636;2022-09-06T00:19:10;18.20;;;14.55;;
56991;SDS011;42885;49.754;18.636;2022-09-06T00:21:42;22.10;;;14.20;;
56991;SDS011;42885;49.754;18.636;2022-09-06T00:24:12;23.98;;;14.65;;
56991;SDS011;42885;49.754;18.636;2022-09-06T00:26:44;16.42;;;14.30;;
56991;SDS011;42885;49.754;18.636;2022-09-06T00:29:14;17.70;;;15.00;;
56991;SDS011;42885;49.754;18.636;2022-09-06T00:31:45;17.62;;;15.23;;
56991;SDS011;42885;49.754;18.636;2022-09-06T00:34:16;16.70;;;14.90;;
56991;SDS011;42885;49.754;18.636;2022-09-06T00:36:47;18.17;;;14.35;;
56991;SDS011;42885;49.754;18.636;2022-09-06T00:39:18;16.30;;;13.38;;
56991;SDS011;42885;49.754;18.636;2022-09-06T00:41:49;17.52;;;13.78;;
56991;SDS011;42885;49.754;18.636;2022-09-06T00:44:21;19.27;;;14.03;;
56991;SDS011;42885;49.754;18.636;2022-09-06T00:46:52;16.93;;;14.60;;
56991;SDS011;42885;49.754;18.636;2022-09-06T00:49:25;16.12;;;14.18;;
56991;SDS011;42885;49.754;18.636;2022-09-06T00:52:04;15.67;;;13.87;;
56991;SDS011;42885;49.754;18.636;2022-09-06T00:54:37;16.17;;;14.23;;
56991;SDS011;42885;49.754;18.636;2022-09-06T00:57:09;14.65;;;13.05;;
56991;SDS011;42885;49.754;18.636;2022-09-06T00:59:40;18.98;;;15.03;;
56991;SDS011;42885;49.754;18.636;2022-09-06T01:02:13;18.40;;;14.93;;
56991;SDS011;42885;49.754;18.636;2022-09-06T01:04:43;18.37;;;14.53;;
56991;SDS011;42885;49.754;18.636;2022-09-06T01:27:02;16.60;;;13.68;;
56991;SDS011;42885;49.754;18.636;2022-09-06T01:29:57;17.87;;;13.90;;
56991;SDS011;42885;49.754;18.636;2022-09-06T01:32:26;17.82;;;13.75;;
56991;SDS011;42885;49.754;18.636;2022-09-06T01:37:52;17.07;;;14.40;;
56991;SDS011;42885;49.754;18.636;2022-09-06T01:40:24;15.90;;;14.00;;
56991;SDS011;42885;49.754;18.636;2022-09-06T01:42:56;17.25;;;13.20;;
56991;SDS011;42885;49.754;18.636;2022-09-06T01:48:16;17.27;;;13.35;;
56991;SDS011;42885;49.754;18.636;2022-09-06T01:50:46;17.92;;;13.90;;
56991;SDS011;42885;49.754;18.636;2022-09-06T01:56:22;17.62;;;13.70;;
56991;SDS011;42885;49.754;18.636;2022-09-06T01:59:10;20.55;;;14.75;;
56991;SDS011;42885;49.754;18.636;2022-09-06T02:01:44;20.27;;;14.95;;
56991;SDS011;42885;49.754;18.636;2022-09-06T02:04:29;17.05;;;13.78;;
56991;SDS011;42885;49.754;18.636;2022-09-06T02:07:02;16.05;;;13.25;;
56991;SDS011;42885;49.754;18.636;2022-09-06T02:09:36;19.47;;;14.27;;
56991;SDS011;42885;49.754;18.636;2022-09-06T02:12:11;16.32;;;13.08;;
56991;SDS011;42885;49.754;18.636;2022-09-06T02:14:47;15.35;;;13.15;;
56991;SDS011;42885;49.754;18.636;2022-09-06T02:17:24;17.00;;;13.90;;
56991;SDS011;42885;49.754;18.636;2022-09-06T02:20:00;16.57;;;13.90;;
56991;SDS011;42885;49.754;18.636;2022-09-06T02:22:33;16.15;;;13.35;;
56991;SDS011;42885;49.754;18.636;2022-09-06T02:25:09;16.77;;;13.98;;
56991;SDS011;42885;49.754;18.636;2022-09-06T02:27:42;17.05;;;13.30;;
56991;SDS011;42885;49.754;18.636;2022-09-06T02:30:13;17.23;;;13.18;;
56991;SDS011;42885;49.754;18.636;2022-09-06T02:32:49;16.00;;;14.07;;
56991;SDS011;42885;49.754;18.636;2022-09-06T02:35:21;15.78;;;14.05;;
56991;SDS011;42885;49.754;18.636;2022-09-06T02:37:53;15.50;;;13.73;;
56991;SDS011;42885;49.754;18.636;2022-09-06T02:40:24;15.85;;;13.40;;
56991;SDS011;42885;49.754;18.636;2022-09-06T02:42:55;15.85;;;13.65;;
56991;SDS011;42885;49.754;18.636;2022-09-06T02:45:26;15.57;;;12.87;;
56991;SDS011;42885;49.754;18.636;2022-09-06T02:47:57;17.00;;;13.95;;
56991;SDS011;42885;49.754;18.636;2022-09-06T02:50:27;25.35;;;14.58;;
56991;SDS011;42885;49.754;18.636;2022-09-06T02:53:05;20.05;;;14.38;;
56991;SDS011;42885;49.754;18.636;2022-09-06T02:55:38;17.37;;;14.23;;
56991;SDS011;42885;49.754;18.636;2022-09-06T02:58:09;15.78;;;14.07;;
56991;SDS011;42885;49.754;18.636;2022-09-06T03:00:40;18.25;;;14.07;;
56991;SDS011;42885;49.754;18.636;2022-09-06T03:03:11;16.55;;;14.78;;
56991;SDS011;42885;49.754;18.636;2022-09-06T03:05:47;15.88;;;13.85;;
56991;SDS011;42885;49.754;18.636;2022-09-06T03:08:18;17.52;;;13.68;;
56991;SDS011;42885;49.754;18.636;2022-09-06T03:10:51;19.55;;;14.18;;
56991;SDS011;42885;49.754;18.636;2022-09-06T03:15:55;15.93;;;13.78;;
56991;SDS011;42885;49.754;18.636;2022-09-06T03:18:28;15.90;;;13.30;;
56991;SDS011;42885;49.754;18.636;2022-09-06T03:20:59;14.90;;;13.10;;
56991;SDS011;42885;49.754;18.636;2022-09-06T03:23:30;16.93;;;13.03;;
56991;SDS011;42885;49.754;18.636;2022-09-06T03:26:01;18.52;;;13.38;;
56991;SDS011;42885;49.754;18.636;2022-09-06T03:28:32;16.10;;;13.00;;
56991;SDS011;42885;49.754;18.636;2022-09-06T03:31:04;15.23;;;13.50;;
56991;SDS011;42885;49.754;18.636;2022-09-06T03:33:35;15.55;;;13.10;;
56991;SDS011;42885;49.754;18.636;2022-09-06T03:36:06;18.67;;;14.13;;
56991;SDS011;42885;49.754;18.636;2022-09-06T03:38:37;15.45;;;13.70;;
56991;SDS011;42885;49.754;18.636;2022-09-06T03:41:08;16.93;;;12.63;;
56991;SDS011;42885;49.754;18.636;2022-09-06T03:43:39;17.40;;;14.30;;
56991;SDS011;42885;49.754;18.636;2022-09-06T03:46:10;15.88;;;13.78;;
56991;SDS011;42885;49.754;18.636;2022-09-06T03:48:41;16.07;;;13.68;;
56991;SDS011;42885;49.754;18.636;2022-09-06T03:51:13;18.17;;;14.83;;
56991;SDS011;42885;49.754;18.636;2022-09-06T03:53:43;17.37;;;15.03;;
56991;SDS011;42885;49.754;18.636;2022-09-06T03:56:15;16.77;;;14.00;;
56991;SDS011;42885;49.754;18.636;2022-09-06T03:58:45;17.35;;;14.53;;
56991;SDS011;42885;49.754;18.636;2022-09-06T04:01:16;17.25;;;14.50;;
56991;SDS011;42885;49.754;18.636;2022-09-06T04:03:47;15.83;;;13.72;;
56991;SDS011;42885;49.754;18.636;2022-09-06T04:06:18;17.23;;;14.93;;
56991;SDS011;42885;49.754;18.636;2022-09-06T04:08:49;18.05;;;13.38;;
56991;SDS011;42885;49.754;18.636;2022-09-06T04:11:20;17.52;;;13.75;;
56991;SDS011;42885;49.754;18.636;2022-09-06T04:13:51;16.50;;;13.68;;
56991;SDS011;42885;49.754;18.636;2022-09-06T04:16:21;19.80;;;14.45;;
56991;SDS011;42885;49.754;18.636;2022-09-06T04:18:53;16.32;;;14.03;;
56991;SDS011;42885;49.754;18.636;2022-09-06T04:21:24;16.80;;;13.60;;
56991;SDS011;42885;49.754;18.636;2022-09-06T04:23:54;17.67;;;12.82;;
56991;SDS011;42885;49.754;18.636;2022-09-06T04:26:25;17.10;;;13.03;;
56991;SDS011;42885;49.754;18.636;2022-09-06T04:28:56;15.08;;;12.80;;
56991;SDS011;42885;49.754;18.636;2022-09-06T04:31:27;19.55;;;13.03;;
56991;SDS011;42885;49.754;18.636;2022-09-06T04:33:58;15.50;;;12.90;;
56991;SDS011;42885;49.754;18.636;2022-09-06T04:36:28;14.80;;;12.53;;
56991;SDS011;42885;49.754;18.636;2022-09-06T04:38:59;17.87;;;12.63;;
56991;SDS011;42885;49.754;18.636;2022-09-06T04:41:31;15.40;;;12.37;;
56991;SDS011;42885;49.754;18.636;2022-09-06T04:44:02;15.35;;;13.15;;
56991;SDS011;42885;49.754;18.636;2022-09-06T04:46:33;16.10;;;13.03;;
56991;SDS011;42885;49.754;18.636;2022-09-06T04:49:04;42.03;;;36.17;;
56991;SDS011;42885;49.754;18.636;2022-09-06T04:51:34;20.47;;;15.50;;
56991;SDS011;42885;49.754;18.636;2022-09-06T04:54:07;15.60;;;12.98;;
56991;SDS011;42885;49.754;18.636;2022-09-06T04:56:38;15.70;;;13.85;;
56991;SDS011;42885;49.754;18.636;2022-09-06T04:59:09;16.77;;;13.48;;
56991;SDS011;42885;49.754;18.636;2022-09-06T05:01:39;19.80;;;13.05;;
56991;SDS011;42885;49.754;18.636;2022-09-06T05:04:10;14.03;;;12.30;;
56991;SDS011;42885;49.754;18.636;2022-09-06T05:06:41;18.73;;;15.05;;
56991;SDS011;42885;49.754;18.636;2022-09-06T05:09:13;18.48;;;13.65;;
56991;SDS011;42885;49.754;18.636;2022-09-06T05:11:44;19.07;;;13.00;;
56991;SDS011;42885;49.754;18.636;2022-09-06T05:14:15;16.13;;;13.60;;
56991;SDS011;42885;49.754;18.636;2022-09-06T05:16:46;16.65;;;13.93;;
56991;SDS011;42885;49.754;18.636;2022-09-06T05:19:18;17.00;;;13.25;;
56991;SDS011;42885;49.754;18.636;2022-09-06T05:21:50;14.95;;;13.10;;
56991;SDS011;42885;49.754;18.636;2022-09-06T05:24:21;19.15;;;13.38;;
56991;SDS011;42885;49.754;18.636;2022-09-06T05:26:52;18.60;;;14.15;;
56991;SDS011;42885;49.754;18.636;2022-09-06T05:29:23;17.27;;;13.50;;
56991;SDS011;42885;49.754;18.636;2022-09-06T05:31:53;17.27;;;12.83;;
56991;SDS011;42885;49.754;18.636;2022-09-06T05:34:25;14.50;;;12.98;;
56991;SDS011;42885;49.754;18.636;2022-09-06T05:36:55;14.30;;;12.65;;
56991;SDS011;42885;49.754;18.636;2022-09-06T05:39:26;16.70;;;13.03;;
56991;SDS011;42885;49.754;18.636;2022-09-06T05:42:00;14.65;;;12.85;;
56991;SDS011;42885;49.754;18.636;2022-09-06T05:44:33;18.13;;;12.97;;
56991;SDS011;42885;49.754;18.636;2022-09-06T05:47:08;14.93;;;13.37;;
56991;SDS011;42885;49.754;18.636;2022-09-06T05:49:39;17.65;;;11.93;;
56991;SDS011;42885;49.754;18.636;2022-09-06T05:52:10;17.82;;;13.10;;
56991;SDS011;42885;49.754;18.636;2022-09-06T05:54:41;17.30;;;12.45;;
56991;SDS011;42885;49.754;18.636;2022-09-06T05:57:12;16.73;;;13.00;;
56991;SDS011;42885;49.754;18.636;2022-09-06T05:59:43;14.98;;;12.60;;
56991;SDS011;42885;49.754;18.636;2022-09-06T06:02:13;15.87;;;12.80;;
56991;SDS011;42885;49.754;18.636;2022-09-06T06:04:44;16.90;;;12.55;;
56991;SDS011;42885;49.754;18.636;2022-09-06T06:07:15;15.78;;;12.58;;
56991;SDS011;42885;49.754;18.636;2022-09-06T06:09:46;18.40;;;13.10;;
56991;SDS011;42885;49.754;18.636;2022-09-06T06:12:17;16.62;;;12.85;;
56991;SDS011;42885;49.754;18.636;2022-09-06T06:14:48;16.15;;;12.40;;
56991;SDS011;42885;49.754;18.636;2022-09-06T06:17:18;16.60;;;12.33;;
56991;SDS011;42885;49.754;18.636;2022-09-06T06:19:49;18.80;;;11.80;;
56991;SDS011;42885;49.754;18.636;2022-09-06T06:22:21;14.00;;;12.03;;
56991;SDS011;42885;49.754;18.636;2022-09-06T06:24:52;17.17;;;11.97;;
56991;SDS011;42885;49.754;18.636;2022-09-06T06:27:22;16.60;;;11.70;;
56991;SDS011;42885;49.754;18.636;2022-09-06T06:29:53;13.83;;;10.85;;
56991;SDS011;42885;49.754;18.636;2022-09-06T06:32:24;19.45;;;10.58;;
56991;SDS011;42885;49.754;18.636;2022-09-06T06:34:55;15.25;;;10.40;;
56991;SDS011;42885;49.754;18.636;2022-09-06T06:37:26;14.55;;;10.23;;
56991;SDS011;42885;49.754;18.636;2022-09-06T06:39:56;13.57;;;10.67;;
56991;SDS011;42885;49.754;18.636;2022-09-06T06:42:27;13.78;;;9.95;;
56991;SDS011;42885;49.754;18.636;2022-09-06T06:44:58;16.70;;;10.45;;
56991;SDS011;42885;49.754;18.636;2022-09-06T06:47:29;11.05;;;9.70;;
56991;SDS011;42885;49.754;18.636;2022-09-06T06:50:00;13.95;;;10.00;;
56991;SDS011;42885;49.754;18.636;2022-09-06T06:52:30;14.23;;;9.70;;
56991;SDS011;42885;49.754;18.636;2022-09-06T06:55:01;12.33;;;9.85;;
56991;SDS011;42885;49.754;18.636;2022-09-06T06:57:33;11.40;;;8.97;;
56991;SDS011;42885;49.754;18.636;2022-09-06T07:00:04;11.57;;;8.70;;
56991;SDS011;42885;49.754;18.636;2022-09-06T07:02:35;11.00;;;8.37;;
56991;SDS011;42885;49.754;18.636;2022-09-06T07:05:06;11.68;;;8.68;;
56991;SDS011;42885;49.754;18.636;2022-09-06T07:07:38;9.45;;;7.70;;
56991;SDS011;42885;49.754;18.636;2022-09-06T07:10:09;10.98;;;7.87;;
56991;SDS011;42885;49.754;18.636;2022-09-06T07:12:40;9.70;;;7.47;;
56991;SDS011;42885;49.754;18.636;2022-09-06T07:15:11;11.80;;;6.55;;
56991;SDS011;42885;49.754;18.636;2022-09-06T07:17:41;7.93;;;6.53;;
56991;SDS011;42885;49.754;18.636;2022-09-06T07:20:12;11.60;;;8.65;;
56991;SDS011;42885;49.754;18.636;2022-09-06T07:22:43;12.50;;;8.33;;
56991;SDS011;42885;49.754;18.636;2022-09-06T07:25:14;11.15;;;8.00;;
56991;SDS011;42885;49.754;18.636;2022-09-06T07:27:45;10.05;;;8.33;;
56991;SDS011;42885;49.754;18.636;2022-09-06T07:30:15;10.63;;;8.70;;
56991;SDS011;42885;49.754;18.636;2022-09-06T07:32:47;9.93;;;7.97;;
56991;SDS011;42885;49.754;18.636;2022-09-06T07:35:18;11.60;;;8.13;;
56991;SDS011;42885;49.754;18.636;2022-09-06T07:37:53;13.00;;;9.65;;
56991;SDS011;42885;49.754;18.636;2022-09-06T07:40:26;12.63;;;8.93;;
56991;SDS011;42885;49.754;18.636;2022-09-06T07:42:58;13.78;;;8.20;;
56991;SDS011;42885;49.754;18.636;2022-09-06T07:45:29;11.83;;;7.63;;
56991;SDS011;42885;49.754;18.636;2022-09-06T07:47:59;8.55;;;7.15;;
56991;SDS011;42885;49.754;18.636;2022-09-06T07:50:30;8.37;;;6.67;;
56991;SDS011;42885;49.754;18.636;2022-09-06T07:53:05;12.15;;;7.35;;
56991;SDS011;42885;49.754;18.636;2022-09-06T07:55:36;11.15;;;7.58;;
56991;SDS011;42885;49.754;18.636;2022-09-06T07:58:07;11.85;;;7.08;;
56991;SDS011;42885;49.754;18.636;2022-09-06T08:00:38;13.03;;;7.62;;
56991;SDS011;42885;49.754;18.636;2022-09-06T08:03:09;11.73;;;7.80;;
56991;SDS011;42885;49.754;18.636;2022-09-06T08:05:40;8.37;;;7.10;;
56991;SDS011;42885;49.754;18.636;2022-09-06T08:08:11;8.80;;;6.62;;
56991;SDS011;42885;49.754;18.636;2022-09-06T08:10:42;12.35;;;7.30;;
56991;SDS011;42885;49.754;18.636;2022-09-06T08:13:13;12.13;;;7.33;;
56991;SDS011;42885;49.754;18.636;2022-09-06T08:15:43;10.05;;;6.53;;
56991;SDS011;42885;49.754;18.636;2022-09-06T08:18:14;10.68;;;7.35;;
56991;SDS011;42885;49.754;18.636;2022-09-06T08:20:45;11.05;;;7.50;;
56991;SDS011;42885;49.754;18.636;2022-09-06T08:23:16;10.45;;;7.03;;
56991;SDS011;42885;49.754;18.636;2022-09-06T08:26:07;9.18;;;6.83;;
56991;SDS011;42885;49.754;18.636;2022-09-06T08:28:26;9.70;;;6.90;;
56991;SDS011;42885;49.754;18.636;2022-09-06T08:31:03;9.20;;;7.10;;
56991;SDS011;42885;49.754;18.636;2022-09-06T08:33:36;8.83;;;7.43;;
56991;SDS011;42885;49.754;18.636;2022-09-06T08:36:08;8.55;;;6.72;;
56991;SDS011;42885;49.754;18.636;2022-09-06T08:38:40;8.45;;;6.80;;
56991;SDS011;42885;49.754;18.636;2022-09-06T08:44:04;8.27;;;6.70;;
56991;SDS011;42885;49.754;18.636;2022-09-06T08:47:05;15.63;;;6.83;;
56991;SDS011;42885;49.754;18.636;2022-09-06T08:49:19;8.33;;;6.47;;
56991;SDS011;42885;49.754;18.636;2022-09-06T08:54:47;8.80;;;6.10;;
56991;SDS011;42885;49.754;18.636;2022-09-06T08:57:29;9.65;;;6.20;;
56991;SDS011;42885;49.754;18.636;2022-09-06T09:00:08;9.33;;;5.90;;
56991;SDS011;42885;49.754;18.636;2022-09-06T09:02:45;8.35;;;5.83;;
56991;SDS011;42885;49.754;18.636;2022-09-06T09:05:21;9.48;;;6.00;;
56991;SDS011;42885;49.754;18.636;2022-09-06T09:11:04;6.90;;;5.78;;
56991;SDS011;42885;49.754;18.636;2022-09-06T09:13:51;8.23;;;5.57;;
56991;SDS011;42885;49.754;18.636;2022-09-06T09:16:23;8.05;;;5.30;;
56991;SDS011;42885;49.754;18.636;2022-09-06T09:19:00;8.43;;;6.00;;
56991;SDS011;42885;49.754;18.636;2022-09-06T09:21:30;8.38;;;5.97;;
56991;SDS011;42885;49.754;18.636;2022-09-06T09:24:06;6.60;;;5.25;;
56991;SDS011;42885;49.754;18.636;2022-09-06T09:27:02;10.10;;;5.40;;
56991;SDS011;42885;49.754;18.636;2022-09-06T09:32:35;6.60;;;5.78;;
56991;SDS011;42885;49.754;18.636;2022-09-06T09:35:14;13.90;;;5.97;;
56991;SDS011;42885;49.754;18.636;2022-09-06T09:38:08;12.33;;;5.50;;
56991;SDS011;42885;49.754;18.636;2022-09-06T09:40:55;8.68;;;6.12;;
56991;SDS011;42885;49.754;18.636;2022-09-06T09:43:38;8.68;;;5.87;;
56991;SDS011;42885;49.754;18.636;2022-09-06T09:46:14;12.03;;;5.92;;
56991;SDS011;42885;49.754;18.636;2022-09-06T09:51:40;9.53;;;6.03;;
56991;SDS011;42885;49.754;18.636;2022-09-06T09:54:14;12.50;;;5.83;;
56991;SDS011;42885;49.754;18.636;2022-09-06T09:59:32;9.20;;;5.80;;
56991;SDS011;42885;49.754;18.636;2022-09-06T10:05:02;9.75;;;5.40;;
56991;SDS011;42885;49.754;18.636;2022-09-06T10:07:50;7.97;;;5.47;;
56991;SDS011;42885;49.754;18.636;2022-09-06T10:10:24;8.35;;;5.03;;
56991;SDS011;42885;49.754;18.636;2022-09-06T10:13:08;9.90;;;5.10;;
56991;SDS011;42885;49.754;18.636;2022-09-06T10:15:48;7.53;;;5.20;;
56991;SDS011;42885;49.754;18.636;2022-09-06T10:26:28;10.43;;;5.60;;
56991;SDS011;42885;49.754;18.636;2022-09-06T10:29:04;7.25;;;4.78;;
56991;SDS011;42885;49.754;18.636;2022-09-06T10:37:15;7.28;;;5.15;;
56991;SDS011;42885;49.754;18.636;2022-09-06T10:59:22;8.00;;;4.83;;
56991;SDS011;42885;49.754;18.636;2022-09-06T11:05:15;8.53;;;4.97;;
56991;SDS011;42885;49.754;18.636;2022-09-06T11:07:42;6.17;;;4.40;;
56991;SDS011;42885;49.754;18.636;2022-09-06T11:10:25;10.48;;;4.42;;
56991;SDS011;42885;49.754;18.636;2022-09-06T11:13:00;8.58;;;5.10;;
56991;SDS011;42885;49.754;18.636;2022-09-06T11:15:55;12.80;;;5.58;;
56991;SDS011;42885;49.754;18.636;2022-09-06T11:18:47;7.35;;;4.72;;
56991;SDS011;42885;49.754;18.636;2022-09-06T11:30:02;6.53;;;4.65;;
56991;SDS011;42885;49.754;18.636;2022-09-06T11:32:38;7.08;;;4.40;;
56991;SDS011;42885;49.754;18.636;2022-09-06T11:35:24;12.68;;;4.90;;
56991;SDS011;42885;49.754;18.636;2022-09-06T11:37:59;7.70;;;4.30;;
56991;SDS011;42885;49.754;18.636;2022-09-06T11:40:37;7.63;;;4.93;;
56991;SDS011;42885;49.754;18.636;2022-09-06T11:43:12;8.45;;;5.30;;
56991;SDS011;42885;49.754;18.636;2022-09-06T11:45:49;8.63;;;5.05;;
56991;SDS011;42885;49.754;18.636;2022-09-06T11:51:05;7.15;;;4.75;;
56991;SDS011;42885;49.754;18.636;2022-09-06T11:59:29;10.10;;;5.85;;
56991;SDS011;42885;49.754;18.636;2022-09-06T12:02:54;7.27;;;5.13;;
56991;SDS011;42885;49.754;18.636;2022-09-06T12:05:26;14.23;;;5.20;;
56991;SDS011;42885;49.754;18.636;2022-09-06T12:10:50;9.63;;;4.97;;
56991;SDS011;42885;49.754;18.636;2022-09-06T12:13:32;8.37;;;5.03;;
56991;SDS011;42885;49.754;18.636;2022-09-06T12:16:05;11.22;;;4.97;;
56991;SDS011;42885;49.754;18.636;2022-09-06T12:24:07;10.00;;;5.40;;
56991;SDS011;42885;49.754;18.636;2022-09-06T12:26:53;7.50;;;5.00;;
56991;SDS011;42885;49.754;18.636;2022-09-06T12:29:48;6.75;;;5.03;;
56991;SDS011;42885;49.754;18.636;2022-09-06T12:39:00;6.78;;;4.78;;
56991;SDS011;42885;49.754;18.636;2022-09-06T12:41:40;10.70;;;5.22;;
56991;SDS011;42885;49.754;18.636;2022-09-06T12:44:15;8.00;;;5.10;;
56991;SDS011;42885;49.754;18.636;2022-09-06T12:46:49;7.03;;;4.90;;
56991;SDS011;42885;49.754;18.636;2022-09-06T12:49:21;8.87;;;5.30;;
56991;SDS011;42885;49.754;18.636;2022-09-06T12:52:03;7.70;;;4.87;;
56991;SDS011;42885;49.754;18.636;2022-09-06T12:57:20;5.22;;;4.53;;
56991;SDS011;42885;49.754;18.636;2022-09-06T12:59:56;6.95;;;4.72;;
56991;SDS011;42885;49.754;18.636;2022-09-06T13:02:33;7.00;;;4.60;;
56991;SDS011;42885;49.754;18.636;2022-09-06T13:05:30;8.10;;;4.78;;
56991;SDS011;42885;49.754;18.636;2022-09-06T13:07:58;7.78;;;4.67;;
56991;SDS011;42885;49.754;18.636;2022-09-06T13:10:36;8.60;;;4.42;;
56991;SDS011;42885;49.754;18.636;2022-09-06T13:13:21;7.40;;;4.57;;
56991;SDS011;42885;49.754;18.636;2022-09-06T13:15:55;10.30;;;4.97;;
56991;SDS011;42885;49.754;18.636;2022-09-06T13:18:33;6.40;;;4.20;;
56991;SDS011;42885;49.754;18.636;2022-09-06T13:21:31;6.85;;;4.58;;
56991;SDS011;42885;49.754;18.636;2022-09-06T13:23:47;7.67;;;4.33;;
56991;SDS011;42885;49.754;18.636;2022-09-06T13:26:37;6.00;;;4.40;;
56991;SDS011;42885;49.754;18.636;2022-09-06T13:29:09;6.03;;;4.42;;
56991;SDS011;42885;49.754;18.636;2022-09-06T13:31:51;5.53;;;4.37;;
56991;SDS011;42885;49.754;18.636;2022-09-06T13:34:27;6.30;;;4.23;;
56991;SDS011;42885;49.754;18.636;2022-09-06T13:37:04;5.87;;;4.40;;
56991;SDS011;42885;49.754;18.636;2022-09-06T13:39:41;8.50;;;4.30;;
56991;SDS011;42885;49.754;18.636;2022-09-06T13:42:25;4.90;;;4.10;;
56991;SDS011;42885;49.754;18.636;2022-09-06T13:45:20;8.28;;;4.70;;
56991;SDS011;42885;49.754;18.636;2022-09-06T13:47:54;8.70;;;5.33;;
56991;SDS011;42885;49.754;18.636;2022-09-06T13:50:25;8.57;;;5.93;;
56991;SDS011;42885;49.754;18.636;2022-09-06T13:52:56;8.63;;;6.05;;
56991;SDS011;42885;49.754;18.636;2022-09-06T13:55:29;10.93;;;5.03;;
56991;SDS011;42885;49.754;18.636;2022-09-06T13:58:03;10.05;;;5.42;;
56991;SDS011;42885;49.754;18.636;2022-09-06T14:00:35;7.67;;;4.80;;
56991;SDS011;42885;49.754;18.636;2022-09-06T14:03:09;7.05;;;4.12;;
56991;SDS011;42885;49.754;18.636;2022-09-06T14:05:42;7.53;;;4.15;;
56991;SDS011;42885;49.754;18.636;2022-09-06T14:08:13;5.58;;;4.30;;
56991;SDS011;42885;49.754;18.636;2022-09-06T14:10:44;5.20;;;4.70;;
56991;SDS011;42885;49.754;18.636;2022-09-06T14:13:17;7.42;;;4.50;;
56991;SDS011;42885;49.754;18.636;2022-09-06T14:15:49;8.50;;;5.00;;
56991;SDS011;42885;49.754;18.636;2022-09-06T14:18:20;9.33;;;4.75;;
56991;SDS011;42885;49.754;18.636;2022-09-06T14:20:53;8.58;;;4.55;;
56991;SDS011;42885;49.754;18.636;2022-09-06T14:23:26;5.87;;;4.37;;
56991;SDS011;42885;49.754;18.636;2022-09-06T14:25:57;4.97;;;3.90;;
56991;SDS011;42885;49.754;18.636;2022-09-06T14:28:31;5.22;;;4.05;;
56991;SDS011;42885;49.754;18.636;2022-09-06T14:31:09;5.40;;;4.15;;
56991;SDS011;42885;49.754;18.636;2022-09-06T14:36:16;5.72;;;3.70;;
56991;SDS011;42885;49.754;18.636;2022-09-06T14:38:48;8.28;;;4.42;;
56991;SDS011;42885;49.754;18.636;2022-09-06T14:41:19;8.57;;;4.90;;
56991;SDS011;42885;49.754;18.636;2022-09-06T14:43:51;7.67;;;4.37;;
56991;SDS011;42885;49.754;18.636;2022-09-06T14:46:23;6.83;;;4.27;;
56991;SDS011;42885;49.754;18.636;2022-09-06T14:49:00;6.33;;;3.90;;
56991;SDS011;42885;49.754;18.636;2022-09-06T14:51:36;6.30;;;4.20;;
56991;SDS011;42885;49.754;18.636;2022-09-06T14:54:11;8.88;;;4.65;;
56991;SDS011;42885;49.754;18.636;2022-09-06T14:56:49;5.95;;;4.20;;
56991;SDS011;42885;49.754;18.636;2022-09-06T14:59:21;8.63;;;4.20;;
56991;SDS011;42885;49.754;18.636;2022-09-06T15:01:52;4.50;;;3.30;;
56991;SDS011;42885;49.754;18.636;2022-09-06T15:04:22;4.90;;;3.75;;
56991;SDS011;42885;49.754;18.636;2022-09-06T15:06:54;7.08;;;3.85;;
56991;SDS011;42885;49.754;18.636;2022-09-06T15:09:25;6.22;;;4.00;;
56991;SDS011;42885;49.754;18.636;2022-09-06T15:11:58;6.22;;;3.80;;
56991;SDS011;42885;49.754;18.636;2022-09-06T15:14:29;5.37;;;3.87;;
56991;SDS011;42885;49.754;18.636;2022-09-06T15:17:09;7.85;;;3.90;;
56991;SDS011;42885;49.754;18.636;2022-09-06T15:19:43;8.95;;;3.80;;
56991;SDS011;42885;49.754;18.636;2022-09-06T15:22:14;7.78;;;3.83;;
56991;SDS011;42885;49.754;18.636;2022-09-06T15:24:45;8.03;;;3.90;;
56991;SDS011;42885;49.754;18.636;2022-09-06T15:27:19;7.98;;;4.26;;
56991;SDS011;42885;49.754;18.636;2022-09-06T15:29:51;7.62;;;4.00;;
56991;SDS011;42885;49.754;18.636;2022-09-06T15:32:21;7.78;;;4.10;;
56991;SDS011;42885;49.754;18.636;2022-09-06T15:34:56;6.37;;;3.40;;
56991;SDS011;42885;49.754;18.636;2022-09-06T15:37:27;7.73;;;3.90;;
56991;SDS011;42885;49.754;18.636;2022-09-06T15:39:58;5.07;;;3.93;;
56991;SDS011;42885;49.754;18.636;2022-09-06T15:42:29;6.03;;;3.30;;
56991;SDS011;42885;49.754;18.636;2022-09-06T15:45:00;9.43;;;3.83;;
56991;SDS011;42885;49.754;18.636;2022-09-06T15:47:31;5.05;;;3.60;;
56991;SDS011;42885;49.754;18.636;2022-09-06T15:50:04;6.83;;;3.08;;
56991;SDS011;42885;49.754;18.636;2022-09-06T15:52:36;6.03;;;3.37;;
56991;SDS011;42885;49.754;18.636;2022-09-06T15:55:06;9.35;;;4.03;;
56991;SDS011;42885;49.754;18.636;2022-09-06T15:57:55;12.50;;;3.65;;
56991;SDS011;42885;49.754;18.636;2022-09-06T16:00:25;6.80;;;3.40;;
56991;SDS011;42885;49.754;18.636;2022-09-06T16:02:56;6.15;;;3.77;;
56991;SDS011;42885;49.754;18.636;2022-09-06T16:05:27;10.55;;;3.65;;
56991;SDS011;42885;49.754;18.636;2022-09-06T16:07:58;6.30;;;4.03;;
56991;SDS011;42885;49.754;18.636;2022-09-06T16:10:29;5.97;;;3.47;;
56991;SDS011;42885;49.754;18.636;2022-09-06T16:12:59;7.40;;;3.90;;
56991;SDS011;42885;49.754;18.636;2022-09-06T16:15:30;6.47;;;3.70;;
56991;SDS011;42885;49.754;18.636;2022-09-06T16:18:01;9.13;;;3.90;;
56991;SDS011;42885;49.754;18.636;2022-09-06T16:20:43;4.50;;;3.67;;
56991;SDS011;42885;49.754;18.636;2022-09-06T16:23:13;6.05;;;3.77;;
56991;SDS011;42885;49.754;18.636;2022-09-06T16:25:47;6.13;;;4.23;;
56991;SDS011;42885;49.754;18.636;2022-09-06T16:28:21;8.77;;;4.30;;
56991;SDS011;42885;49.754;18.636;2022-09-06T16:30:53;6.83;;;4.20;;
56991;SDS011;42885;49.754;18.636;2022-09-06T16:33:24;7.07;;;4.10;;
56991;SDS011;42885;49.754;18.636;2022-09-06T16:35:57;7.15;;;4.12;;
56991;SDS011;42885;49.754;18.636;2022-09-06T16:38:48;6.93;;;3.93;;
56991;SDS011;42885;49.754;18.636;2022-09-06T16:41:23;7.85;;;4.75;;
56991;SDS011;42885;49.754;18.636;2022-09-06T16:43:57;9.05;;;5.10;;
56991;SDS011;42885;49.754;18.636;2022-09-06T16:59:07;10.10;;;4.43;;
56991;SDS011;42885;49.754;18.636;2022-09-06T17:02:32;16.07;;;4.80;;
56991;SDS011;42885;49.754;18.636;2022-09-06T17:09:43;13.10;;;4.53;;
56991;SDS011;42885;49.754;18.636;2022-09-06T17:12:28;9.63;;;5.57;;
56991;SDS011;42885;49.754;18.636;2022-09-06T17:15:00;7.37;;;4.45;;
56991;SDS011;42885;49.754;18.636;2022-09-06T17:17:31;9.10;;;4.50;;
56991;SDS011;42885;49.754;18.636;2022-09-06T17:20:02;11.25;;;4.90;;
56991;SDS011;42885;49.754;18.636;2022-09-06T17:22:34;11.70;;;4.63;;